Old Bridge, New Jersey
Current Conditions -  °F | °C
As of 11:15 PM on Tuesday 25 Nov 2014 (Local Time) from KBLM Reporting Station
Clear Clear  
Wind Chill: 46°   Ceiling: Unl
Heat Index: 46°   Visibility: 10mi
Dew Point: 30°   Wind: 0mph
Humidity: 53%   Direction: NA
Pressure: 30.18"   Gusts: NA
Location:  40.36°N, 74.34°W
Report Text: KBLM 260415Z AUTO 00000KT 10SM CLR 08/M01 A3018 RMK AO1
Loading
Personal Weather Stations






























Interactive Weather Map New forecast layout! Learn more

10-Day Weather Forecast

Advertisements
Track Severe Weather on mobile